Belmore, Ohio
Current Conditions -  °F | °C
As of 3:53 PM on Saturday 25 Oct 2014 (Local Time) from KFDY Reporting Station
Haze Haze  
Wind Chill: 22°   Ceiling: Unl
Heat Index: 22°   Visibility: 4mi
Dew Point: 11°   Wind: 22mph
Humidity: 48%   Direction: 270°W
Pressure: 29.81"   Gusts: 35mph
Location:  41.15°N, 83.94°W
Report Text: KFDY 251953Z AUTO 27019G30KT 4SM HZ CLR 22/11 A2981 RMK AO2 PK WND 26030/1951 SLP089 T02220106
Loading
Personal Weather Stations






























Interactive Weather Map
Tropical Storm Tracking
New forecast layout! Learn more

10-Day Weather Forecast

Advertisements
Track Severe Weather on mobile